createdAt,value
2022-12-14T00:01:45.125Z,98547.22
2022-12-14T00:04:16.465Z,98553.28
2022-12-14T00:06:43.412Z,98554.91
2022-12-14T00:09:10.421Z,98546.94
2022-12-14T00:11:37.391Z,98538.28
2022-12-14T00:14:05.127Z,98541.72
2022-12-14T00:16:34.989Z,98535.66
2022-12-14T00:19:02.695Z,98540.88
2022-12-14T00:21:29.758Z,98523.28
2022-12-14T00:23:59.241Z,98524.09
2022-12-14T00:26:33.149Z,98508.44
2022-12-14T00:29:01.819Z,98524.91
2022-12-14T00:31:31.009Z,98515.44
2022-12-14T00:33:58.794Z,98501.41
2022-12-14T00:36:25.756Z,98500.59
2022-12-14T00:38:52.687Z,98498.78
2022-12-14T00:41:19.594Z,98492.75
2022-12-14T00:43:49.500Z,98501.41
2022-12-14T00:46:17.847Z,98486.72
2022-12-14T00:48:45.375Z,98484.81
2022-12-14T00:51:15.065Z,98474.34
2022-12-14T00:53:44.513Z,98477.91
2022-12-14T00:56:11.800Z,98480.25
2022-12-14T00:58:38.732Z,98485.47
2022-12-14T01:01:12.252Z,98479.41
2022-12-14T01:03:39.419Z,98476.00
2022-12-14T01:06:06.672Z,98470.75
2022-12-14T01:08:36.799Z,98467.19
2022-12-14T01:11:06.375Z,98482.84
2022-12-14T01:13:34.516Z,98481.06
2022-12-14T01:16:12.293Z,98490.69
2022-12-14T01:18:42.045Z,98492.34
2022-12-14T01:21:12.477Z,98481.72
2022-12-14T01:23:41.331Z,98482.56
2022-12-14T01:26:08.470Z,98475.53
2022-12-14T01:28:35.792Z,98476.50
2022-12-14T01:31:17.941Z,98476.50
2022-12-14T01:33:45.865Z,98465.25
2022-12-14T01:36:16.456Z,98452.03
2022-12-14T01:38:44.449Z,98444.19
2022-12-14T01:41:26.916Z,98443.25
2022-12-14T01:44:01.040Z,98441.56
2022-12-14T01:46:56.537Z,98441.56
2022-12-14T01:49:41.975Z,98437.22
2022-12-14T01:52:21.830Z,98432.91
2022-12-14T01:55:00.209Z,98422.47
2022-12-14T01:58:11.871Z,98419.88
2022-12-14T02:00:39.224Z,98425.25
2022-12-14T02:03:28.617Z,98432.09
2022-12-14T02:06:09.174Z,98422.63
2022-12-14T02:08:37.255Z,98415.75
2022-12-14T02:11:04.400Z,98417.56
2022-12-14T02:13:37.236Z,98421.00
2022-12-14T02:16:04.623Z,98428.00
2022-12-14T02:18:32.814Z,98421.81
2022-12-14T02:21:29.624Z,98414.94
2022-12-14T02:24:27.315Z,98424.41
2022-12-14T02:27:12.454Z,98427.03
2022-12-14T02:30:06.536Z,98424.41
2022-12-14T02:32:46.523Z,98431.44
2022-12-14T02:35:46.498Z,98429.66
2022-12-14T02:38:38.604Z,98421.81
2022-12-14T02:41:38.115Z,98428.66
2022-12-14T02:44:30.031Z,98418.22
2022-12-14T02:47:46.702Z,98402.56
2022-12-14T02:50:26.991Z,98392.09
2022-12-14T02:53:41.484Z,98392.09
2022-12-14T02:56:14.740Z,98392.91
2022-12-14T02:58:50.329Z,98381.66
2022-12-14T03:01:23.845Z,98392.09
2022-12-14T03:03:51.858Z,98388.66
2022-12-14T03:06:28.214Z,98393.06
2022-12-14T03:09:06.834Z,98395.53
2022-12-14T03:11:56.243Z,98393.91
2022-12-14T03:15:01.999Z,98385.25
2022-12-14T03:17:32.913Z,98390.47
2022-12-14T03:20:10.150Z,98395.69
2022-12-14T03:22:49.281Z,98393.22
2022-12-14T03:26:12.651Z,98392.41
2022-12-14T03:28:51.687Z,98380.31
2022-12-14T03:31:39.877Z,98373.44
2022-12-14T03:34:13.488Z,98380.31
2022-12-14T03:36:55.706Z,98382.13
2022-12-14T03:39:35.589Z,98381.25
2022-12-14T03:42:15.664Z,98378.66
2022-12-14T03:45:11.137Z,98383.88
2022-12-14T03:48:09.547Z,98362.97
2022-12-14T03:50:40.976Z,98347.31
2022-12-14T03:53:38.373Z,98345.66
2022-12-14T03:56:19.853Z,98362.31
2022-12-14T03:59:08.299Z,98352.03
2022-12-14T04:01:53.653Z,98344.34
2022-12-14T04:04:52.082Z,98346.94
2022-12-14T04:07:37.356Z,98353.16
2022-12-14T04:10:39.689Z,98365.22
2022-12-14T04:13:37.735Z,98362.75
2022-12-14T04:16:31.386Z,98349.84
2022-12-14T04:19:05.248Z,98348.88
2022-12-14T04:21:52.338Z,98335.81
2022-12-14T04:25:19.998Z,98333.19
2022-12-14T04:28:29.758Z,98321.81
2022-12-14T04:31:02.846Z,98304.47
2022-12-14T04:33:48.191Z,98306.25
2022-12-14T04:36:44.927Z,98300.06
2022-12-14T04:39:44.355Z,98299.25
2022-12-14T04:42:13.502Z,98310.50
2022-12-14T04:44:47.384Z,98301.88
2022-12-14T04:47:17.608Z,98317.53
2022-12-14T04:50:03.875Z,98307.91
2022-12-14T04:52:41.198Z,98320.97
2022-12-14T04:55:38.303Z,98326.19
2022-12-14T04:58:28.206Z,98327.84
2022-12-14T05:01:22.440Z,98334.72
2022-12-14T05:04:12.592Z,98333.75
2022-12-14T05:07:02.841Z,98329.34
2022-12-14T05:09:56.983Z,98319.56
2022-12-14T05:12:39.014Z,98317.91
2022-12-14T05:15:18.696Z,98310.91
2022-12-14T05:17:45.934Z,98302.25
2022-12-14T05:20:20.895Z,98311.72
2022-12-14T05:22:48.184Z,98313.22
2022-12-14T05:25:15.579Z,98312.41
2022-12-14T05:27:42.840Z,98303.59
2022-12-14T05:30:10.904Z,98300.16
2022-12-14T05:32:38.037Z,98300.00
2022-12-14T05:35:06.182Z,98298.22
2022-12-14T05:37:33.155Z,98283.38
2022-12-14T05:40:00.359Z,98275.25
2022-12-14T05:42:27.352Z,98278.00
2022-12-14T05:44:54.682Z,98276.34
2022-12-14T05:47:21.666Z,98280.47
2022-12-14T05:49:49.193Z,98270.03
2022-12-14T05:52:17.483Z,98259.44
2022-12-14T05:54:44.428Z,98250.78
2022-12-14T05:57:11.592Z,98254.19
2022-12-14T05:59:38.698Z,98270.53
2022-12-14T06:02:05.833Z,98276.56
2022-12-14T06:04:32.943Z,98270.53
2022-12-14T06:07:00.007Z,98257.31
2022-12-14T06:09:26.984Z,98256.34
2022-12-14T06:11:53.977Z,98259.78
2022-12-14T06:14:21.268Z,98249.31
2022-12-14T06:16:48.178Z,98251.00
2022-12-14T06:19:15.674Z,98247.41
2022-12-14T06:21:44.771Z,98257.03
2022-12-14T06:24:13.294Z,98250.81
2022-12-14T06:26:41.101Z,98240.22
2022-12-14T06:29:15.694Z,98241.03
2022-12-14T06:31:42.720Z,98231.41
2022-12-14T06:34:10.273Z,98227.81
2022-12-14T06:36:40.971Z,98220.97
2022-12-14T06:39:16.061Z,98212.97
2022-12-14T06:41:43.511Z,98210.22
2022-12-14T06:44:14.078Z,98210.22
2022-12-14T06:46:42.772Z,98204.84
2022-12-14T06:49:16.325Z,98194.22
2022-12-14T06:51:43.851Z,98205.50
2022-12-14T06:54:12.628Z,98201.25
2022-12-14T06:56:40.591Z,98201.09
2022-12-14T06:59:08.805Z,98197.50
2022-12-14T07:01:37.123Z,98187.91
2022-12-14T07:04:05.237Z,98190.34
2022-12-14T07:06:39.679Z,98184.31
2022-12-14T07:09:12.008Z,98176.31
2022-12-14T07:11:39.518Z,98179.91
2022-12-14T07:14:07.130Z,98170.25
2022-12-14T07:16:36.752Z,98183.16
2022-12-14T07:19:04.853Z,98187.56
2022-12-14T07:21:32.969Z,98182.19
2022-12-14T07:24:01.290Z,98178.75
2022-12-14T07:26:29.132Z,98185.63
2022-12-14T07:29:00.547Z,98181.38
2022-12-14T07:31:29.182Z,98187.25
2022-12-14T07:33:59.205Z,98195.09
2022-12-14T07:36:28.977Z,98195.09
2022-12-14T07:38:56.828Z,98178.47
2022-12-14T07:41:31.066Z,98166.22
2022-12-14T07:44:01.478Z,98157.56
2022-12-14T07:46:30.155Z,98154.94
2022-12-14T07:48:59.470Z,98153.97
2022-12-14T07:51:32.598Z,98161.66
2022-12-14T07:54:01.669Z,98152.00
2022-12-14T07:56:36.349Z,98146.78
2022-12-14T07:59:08.467Z,98149.25
2022-12-14T08:01:37.504Z,98170.97
2022-12-14T08:04:11.640Z,98183.91
2022-12-14T08:06:39.882Z,98182.09
2022-12-14T08:09:09.821Z,98187.34
2022-12-14T08:11:36.801Z,98183.75
2022-12-14T08:14:07.545Z,98186.34
2022-12-14T08:16:34.996Z,98187.34
2022-12-14T08:19:02.016Z,98171.50
2022-12-14T08:21:29.831Z,98161.84
2022-12-14T08:23:57.882Z,98181.13
2022-12-14T08:26:34.995Z,98190.59
2022-12-14T08:29:03.372Z,98210.84
2022-12-14T08:31:30.694Z,98207.41
2022-12-14T08:34:01.943Z,98197.09
2022-12-14T08:36:30.714Z,98188.59
2022-12-14T08:39:00.504Z,98180.09
2022-12-14T08:41:28.623Z,98174.19
2022-12-14T08:44:00.757Z,98164.72
2022-12-14T08:46:30.690Z,98156.22
2022-12-14T08:48:58.616Z,98150.34
2022-12-14T08:51:27.103Z,98151.31
2022-12-14T08:53:54.789Z,98146.91
2022-12-14T08:56:25.453Z,98152.13
2022-12-14T08:58:52.483Z,98154.88
2022-12-14T09:01:32.294Z,98161.75
2022-12-14T09:04:08.312Z,98159.81
2022-12-14T09:06:39.033Z,98168.63
2022-12-14T09:09:13.625Z,98176.47
2022-12-14T09:11:44.403Z,98191.16
2022-12-14T09:14:11.658Z,98188.22
2022-12-14T09:16:39.975Z,98186.31
2022-12-14T09:19:07.014Z,98166.88
2022-12-14T09:21:34.580Z,98170.97
2022-12-14T09:24:01.691Z,98181.13
2022-12-14T09:26:29.664Z,98186.03
2022-12-14T09:28:57.880Z,98179.53
2022-12-14T09:31:27.644Z,98177.41
2022-12-14T09:33:55.045Z,98177.13
2022-12-14T09:36:28.124Z,98170.75
2022-12-14T09:38:57.396Z,98165.53
2022-12-14T09:41:50.725Z,98171.28
2022-12-14T09:44:55.747Z,98182.22
2022-12-14T09:47:49.815Z,98172.44
2022-12-14T09:50:20.766Z,98177.50
2022-12-14T09:52:55.948Z,98174.75
2022-12-14T09:55:48.034Z,98172.66
2022-12-14T09:58:31.308Z,98172.31
2022-12-14T10:01:23.429Z,98179.53
2022-12-14T10:04:23.272Z,98178.09
2022-12-14T10:07:24.086Z,98169.78
2022-12-14T10:10:26.620Z,98166.69
2022-12-14T10:13:24.305Z,98165.22
2022-12-14T10:16:15.236Z,98163.78
2022-12-14T10:19:21.049Z,98166.75
2022-12-14T10:22:06.693Z,98160.88
2022-12-14T10:25:06.586Z,98164.63
2022-12-14T10:28:01.178Z,98164.97
2022-12-14T10:30:22.892Z,98164.81
2022-12-14T10:33:20.615Z,98172.19
2022-12-14T10:35:54.558Z,98163.19
2022-12-14T10:38:34.885Z,98161.25
2022-12-14T10:41:36.889Z,98168.94
2022-12-14T10:44:44.576Z,98179.25
2022-12-14T10:47:29.700Z,98180.06
2022-12-14T10:50:05.186Z,98169.59
2022-12-14T10:52:41.416Z,98167.78
2022-12-14T10:55:36.955Z,98172.72
2022-12-14T10:58:04.235Z,98168.31
2022-12-14T11:00:31.176Z,98172.56
2022-12-14T11:02:58.858Z,98162.91
2022-12-14T11:05:34.133Z,98155.69
2022-12-14T11:08:04.085Z,98155.69
2022-12-14T11:10:36.086Z,98160.78
2022-12-14T11:13:20.759Z,98165.84
2022-12-14T11:15:52.326Z,98172.72
2022-12-14T11:18:19.794Z,98167.31
2022-12-14T11:20:59.395Z,98165.22
2022-12-14T11:23:30.720Z,98171.91
2022-12-14T11:26:01.790Z,98169.13
2022-12-14T11:28:50.346Z,98177.31
2022-12-14T11:31:20.774Z,98174.41
2022-12-14T11:33:57.202Z,98162.75
2022-12-14T11:36:34.422Z,98161.59
2022-12-14T11:39:15.674Z,98151.63
2022-12-14T11:41:58.777Z,98153.91
2022-12-14T11:44:46.642Z,98157.22
2022-12-14T11:47:20.386Z,98163.09
2022-12-14T11:49:57.695Z,98144.41
2022-12-14T11:52:42.604Z,98151.16
2022-12-14T11:55:26.478Z,98151.78
2022-12-14T11:58:01.171Z,98148.03
2022-12-14T12:00:43.854Z,98151.31
2022-12-14T12:03:42.429Z,98155.38
2022-12-14T12:06:14.227Z,98151.78
2022-12-14T12:08:44.325Z,98151.78
2022-12-14T12:11:21.921Z,98158.69
2022-12-14T12:13:56.587Z,98158.69
2022-12-14T12:16:26.890Z,98153.44
2022-12-14T12:19:21.592Z,98142.13
2022-12-14T12:21:48.849Z,98138.03
2022-12-14T12:24:25.087Z,98132.78
2022-12-14T12:27:12.004Z,98134.44
2022-12-14T12:30:01.705Z,98139.66
2022-12-14T12:32:43.976Z,98145.91
2022-12-14T12:35:40.261Z,98145.09
2022-12-14T12:38:21.812Z,98144.09
2022-12-14T12:41:05.183Z,98152.78
2022-12-14T12:43:50.155Z,98149.34
2022-12-14T12:46:33.186Z,98152.78
2022-12-14T12:49:05.922Z,98154.41
2022-12-14T12:51:46.778Z,98160.63
2022-12-14T12:54:27.696Z,98159.81
2022-12-14T12:56:59.415Z,98166.22
2022-12-14T12:59:50.222Z,98172.28
2022-12-14T13:02:42.549Z,98172.28
2022-12-14T13:05:45.274Z,98173.41
2022-12-14T13:08:11.668Z,98181.13
2022-12-14T13:11:09.065Z,98176.03
2022-12-14T13:13:34.744Z,98181.25
2022-12-14T13:16:29.557Z,98178.81
2022-12-14T13:19:48.172Z,98175.38
2022-12-14T13:22:05.202Z,98178.81
2022-12-14T13:24:33.551Z,98176.19
2022-12-14T13:27:33.596Z,98179.81
2022-12-14T13:30:27.709Z,98178.97
2022-12-14T13:33:24.677Z,98171.28
2022-12-14T13:36:16.098Z,98181.78
2022-12-14T13:39:23.244Z,98176.69
2022-12-14T13:42:02.675Z,98187.31
2022-12-14T13:45:02.126Z,98184.88
2022-12-14T13:47:44.635Z,98195.34
2022-12-14T13:50:43.311Z,98198.97
2022-12-14T13:53:50.327Z,98203.56
2022-12-14T13:56:33.213Z,98206.19
2022-12-14T13:59:04.691Z,98204.50
2022-12-14T14:01:47.021Z,98207.81
2022-12-14T14:04:21.281Z,98217.31
2022-12-14T14:06:50.438Z,98220.56
2022-12-14T14:09:26.666Z,98220.41
2022-12-14T14:12:25.063Z,98216.00
2022-12-14T14:15:29.309Z,98226.50
2022-12-14T14:18:07.057Z,98221.38
2022-12-14T14:20:40.595Z,98222.38
2022-12-14T14:23:16.750Z,98233.03
2022-12-14T14:25:52.924Z,98236.63
2022-12-14T14:28:26.369Z,98254.97
2022-12-14T14:30:57.424Z,98255.94
2022-12-14T14:33:55.001Z,98263.94
2022-12-14T14:36:36.045Z,98258.88
2022-12-14T14:39:31.454Z,98258.22
2022-12-14T14:41:56.622Z,98266.25
2022-12-14T14:44:37.618Z,98282.09
2022-12-14T14:47:23.967Z,98284.06
2022-12-14T14:49:57.802Z,98281.63
2022-12-14T14:52:39.928Z,98287.03
2022-12-14T14:55:52.035Z,98287.97
2022-12-14T14:58:42.105Z,98283.91
2022-12-14T15:01:28.540Z,98292.91
2022-12-14T15:04:01.314Z,98303.50
2022-12-14T15:06:41.254Z,98296.63
2022-12-14T15:09:49.216Z,98282.06
2022-12-14T15:12:46.801Z,98280.44
2022-12-14T15:15:25.413Z,98292.03
2022-12-14T15:17:52.378Z,98293.19
2022-12-14T15:20:28.680Z,98304.63
2022-12-14T15:22:56.847Z,98314.47
2022-12-14T15:25:27.813Z,98322.31
2022-12-14T15:27:57.891Z,98320.00
2022-12-14T15:30:27.900Z,98334.06
2022-12-14T15:33:07.613Z,98332.44
2022-12-14T15:35:42.490Z,98342.25
2022-12-14T15:38:27.575Z,98337.97
2022-12-14T15:41:02.423Z,98345.97
2022-12-14T15:43:30.675Z,98344.50
2022-12-14T15:46:04.306Z,98340.25
2022-12-14T15:48:34.864Z,98345.78
2022-12-14T15:51:10.756Z,98341.53
2022-12-14T15:53:50.807Z,98338.09
2022-12-14T15:56:33.679Z,98348.72
2022-12-14T15:59:23.475Z,98354.94
2022-12-14T16:02:14.911Z,98361.94
2022-12-14T16:04:43.554Z,98367.34
2022-12-14T16:07:23.965Z,98364.88
2022-12-14T16:09:57.658Z,98368.50
2022-12-14T16:13:03.116Z,98372.91
2022-12-14T16:15:30.550Z,98386.16
2022-12-14T16:18:02.500Z,98389.72
2022-12-14T16:20:37.159Z,98397.72
2022-12-14T16:23:16.248Z,98401.31
2022-12-14T16:26:18.144Z,98399.69
2022-12-14T16:28:45.835Z,98399.69
2022-12-14T16:31:21.865Z,98399.97
2022-12-14T16:34:08.676Z,98411.44
2022-12-14T16:36:36.866Z,98416.81
2022-12-14T16:39:07.628Z,98415.34
2022-12-14T16:41:42.081Z,98417.13
2022-12-14T16:44:29.443Z,98419.88
2022-12-14T16:47:02.528Z,98423.47
2022-12-14T16:49:39.906Z,98420.88
2022-12-14T16:52:09.972Z,98419.22
2022-12-14T16:54:38.654Z,98422.81
2022-12-14T16:57:22.900Z,98429.03
2022-12-14T16:59:59.509Z,98440.47
2022-12-14T17:02:44.485Z,98443.09
2022-12-14T17:05:17.591Z,98440.47
2022-12-14T17:07:44.560Z,98443.38
2022-12-14T17:10:19.649Z,98442.56
2022-12-14T17:12:47.381Z,98455.81
2022-12-14T17:15:17.535Z,98457.59
2022-12-14T17:17:49.524Z,98453.47
2022-12-14T17:20:29.851Z,98459.69
2022-12-14T17:23:01.621Z,98469.31
2022-12-14T17:25:31.668Z,98474.72
2022-12-14T17:27:59.701Z,98475.69
2022-12-14T17:30:28.005Z,98477.50
2022-12-14T17:32:55.646Z,98482.84
2022-12-14T17:35:29.728Z,98476.78
2022-12-14T17:37:57.429Z,98475.16
2022-12-14T17:40:25.136Z,98478.75
2022-12-14T17:42:57.242Z,98478.91
2022-12-14T17:45:28.886Z,98483.47
2022-12-14T17:47:56.926Z,98487.03
2022-12-14T17:50:27.522Z,98483.75
2022-12-14T17:52:54.566Z,98489.97
2022-12-14T17:55:25.090Z,98490.94
2022-12-14T17:57:52.903Z,98484.06
2022-12-14T18:00:49.588Z,98481.56
2022-12-14T18:03:18.975Z,98482.69
2022-12-14T18:05:51.382Z,98489.72
2022-12-14T18:08:20.299Z,98495.13
2022-12-14T18:10:51.390Z,98501.31
2022-12-14T18:13:18.279Z,98500.34
2022-12-14T18:15:50.586Z,98491.81
2022-12-14T18:18:20.086Z,98501.44
2022-12-14T18:20:55.560Z,98495.41
2022-12-14T18:23:23.867Z,98490.16
2022-12-14T18:25:55.220Z,98495.41
2022-12-14T18:28:23.311Z,98502.25
2022-12-14T18:30:56.312Z,98495.41
2022-12-14T18:33:26.963Z,98496.22
2022-12-14T18:35:56.446Z,98492.78
2022-12-14T18:38:24.186Z,98500.63
2022-12-14T18:40:54.559Z,98500.63
2022-12-14T18:43:25.490Z,98501.59
2022-12-14T18:45:54.361Z,98498.97
2022-12-14T18:48:22.631Z,98503.41
2022-12-14T18:50:51.342Z,98501.59
2022-12-14T18:53:22.344Z,98503.25
2022-12-14T18:55:50.140Z,98507.66
2022-12-14T18:58:26.672Z,98512.72
2022-12-14T19:00:58.022Z,98516.31
2022-12-14T19:03:25.587Z,98524.97
2022-12-14T19:06:26.721Z,98540.81
2022-12-14T19:08:49.434Z,98539.03
2022-12-14T19:11:39.985Z,98541.66
2022-12-14T19:14:07.548Z,98545.91
2022-12-14T19:16:34.671Z,98551.28
2022-12-14T19:19:01.786Z,98546.88
2022-12-14T19:21:31.113Z,98558.16
2022-12-14T19:23:59.767Z,98566.97
2022-12-14T19:26:28.279Z,98567.78
2022-12-14T19:28:56.597Z,98558.31
2022-12-14T19:31:23.897Z,98561.75
2022-12-14T19:33:50.982Z,98551.28
2022-12-14T19:36:17.977Z,98550.31
2022-12-14T19:38:49.007Z,98552.09
2022-12-14T19:41:20.118Z,98559.94
2022-12-14T19:43:47.441Z,98570.41
2022-12-14T19:46:16.241Z,98573.84
2022-12-14T19:48:44.628Z,98563.38
2022-12-14T19:51:13.321Z,98561.75
2022-12-14T19:53:42.868Z,98552.09
2022-12-14T19:56:11.419Z,98563.38
2022-12-14T19:58:38.376Z,98561.75
2022-12-14T20:01:14.919Z,98571.38
2022-12-14T20:03:42.784Z,98574.81
2022-12-14T20:06:10.115Z,98574.81
2022-12-14T20:08:37.481Z,98566.16
2022-12-14T20:11:10.479Z,98571.38
2022-12-14T20:13:37.611Z,98576.63
2022-12-14T20:16:07.438Z,98573.19
2022-12-14T20:18:34.486Z,98574.97
2022-12-14T20:21:08.180Z,98580.06
2022-12-14T20:23:37.887Z,98584.63
2022-12-14T20:26:10.595Z,98586.25
2022-12-14T20:28:37.743Z,98588.06
2022-12-14T20:31:08.995Z,98587.22
2022-12-14T20:33:37.328Z,98591.47
2022-12-14T20:36:05.338Z,98586.25
2022-12-14T20:38:32.381Z,98585.44
2022-12-14T20:41:14.220Z,98587.22
2022-12-14T20:43:43.916Z,98591.63
2022-12-14T20:46:42.917Z,98606.34
2022-12-14T20:49:16.637Z,98588.19
2022-12-14T20:51:46.004Z,98593.44
2022-12-14T20:54:17.055Z,98597.84
2022-12-14T20:56:44.929Z,98602.09
2022-12-14T20:59:16.814Z,98611.72
2022-12-14T21:01:50.123Z,98606.50
2022-12-14T21:04:20.678Z,98592.59
2022-12-14T21:06:47.672Z,98609.13
2022-12-14T21:09:15.145Z,98624.81
2022-12-14T21:12:05.896Z,98625.75
2022-12-14T21:14:36.271Z,98626.72
2022-12-14T21:17:05.243Z,98607.75
2022-12-14T21:19:33.162Z,98607.75
2022-12-14T21:22:00.263Z,98605.28
2022-12-14T21:27:27.729Z,98623.88
2022-12-14T21:29:54.773Z,98623.19
2022-12-14T21:32:22.728Z,98631.19
2022-12-14T21:34:50.362Z,98623.50
2022-12-14T21:37:17.676Z,98621.00
2022-12-14T21:39:52.296Z,98629.00
2022-12-14T21:42:26.404Z,98626.53
2022-12-14T21:44:54.320Z,98623.25
2022-12-14T21:47:30.636Z,98616.34
2022-12-14T21:49:58.041Z,98626.13
2022-12-14T21:52:27.444Z,98621.03
2022-12-14T21:54:54.769Z,98617.75
2022-12-14T21:57:42.860Z,98610.03
2022-12-14T22:00:16.682Z,98622.28
2022-12-14T22:02:44.052Z,98611.97
2022-12-14T22:05:11.307Z,98610.34
2022-12-14T22:07:38.242Z,98614.75
2022-12-14T22:10:05.881Z,98607.06
2022-12-14T22:12:32.886Z,98609.78
2022-12-14T22:14:59.873Z,98624.66
2022-12-14T22:17:26.810Z,98622.19
2022-12-14T22:19:54.981Z,98635.41
2022-12-14T22:22:22.085Z,98638.97
2022-12-14T22:24:50.907Z,98642.56
2022-12-14T22:27:18.404Z,98648.72
2022-12-14T22:29:45.330Z,98666.19
2022-12-14T22:32:13.106Z,98660.16
2022-12-14T22:34:40.119Z,98656.72
2022-12-14T22:37:07.190Z,98661.94
2022-12-14T22:39:34.328Z,98656.88
2022-12-14T22:42:01.311Z,98663.75
2022-12-14T22:44:28.385Z,98660.44
2022-12-14T22:46:55.309Z,98659.63
2022-12-14T22:49:22.379Z,98653.56
2022-12-14T22:51:50.384Z,98645.84
2022-12-14T22:54:26.771Z,98656.31
2022-12-14T22:57:17.468Z,98655.50
2022-12-14T22:59:57.378Z,98661.69
2022-12-14T23:02:24.542Z,98669.53
2022-12-14T23:04:51.706Z,98659.06
2022-12-14T23:07:18.649Z,98653.84
2022-12-14T23:10:04.174Z,98635.56
2022-12-14T23:12:49.556Z,98634.72
2022-12-14T23:15:35.407Z,98647.78
2022-12-14T23:18:23.962Z,98638.16
2022-12-14T23:21:10.905Z,98629.34
2022-12-14T23:23:58.190Z,98632.94
2022-12-14T23:26:44.050Z,98648.63
2022-12-14T23:29:29.402Z,98658.09
2022-12-14T23:32:15.173Z,98656.31
2022-12-14T23:35:00.450Z,98663.22
2022-12-14T23:37:45.823Z,98664.03
2022-12-14T23:40:31.134Z,98680.53
2022-12-14T23:43:16.320Z,98686.56
2022-12-14T23:46:01.839Z,98667.31
2022-12-14T23:48:47.162Z,98662.09
2022-12-14T23:51:32.356Z,98669.94
2022-12-14T23:54:17.686Z,98670.59
2022-12-14T23:57:02.958Z,98660.16
2022-12-14T23:59:49.626Z,98666.19
